• Join FlightAware (Why Join?)
  • Login
  • US Flag 
07:05PM EDT


 

Airport Tracker/Info


-or-


 

Live Flight TrackerFlight Track Log ✈ AWI3970 ✈ 25-Aug-2013 ✈ KPHL - KALB

Flight Track Log - Related Links

Times and Time Zones

All times are in EDT time to prevent confusion due to time zone crossing. See the AWI3970 flight status page for this flight to view local times or setup timezone preferences in your user account.

Time Position Orientation Groundspeed Altitude Reporting Facility
EDT Latitude Longitude Course Direction KTS MPH feet Rate Location/Type
10:54PM 39.8667 -75.2667 37° Northeast 178 205 900  Level Philadelphia TRACON
10:55PM 39.8167 -75.3333 226° Southwest 232 267 4,000 2,580 Climbing Philadelphia TRACON
10:56PM 39.7833 -75.2667 123° Southeast 250 288 6,600 2,400 Climbing Philadelphia TRACON
10:57PM 39.7833 -75.1667 90° East 280 322 8,800 2,280 Climbing Philadelphia TRACON
10:58PM 39.7978 -74.7723 105° East  Level FlightAware Approximate
10:58PM 39.8000 -75.0667 78° East 297 342 11,400  Level Philadelphia TRACON
10:59PM 39.8112 -74.6722 37° Northeast  Level FlightAware Approximate
10:59PM 39.8000 -74.9667 90° East 313 360 12,000  Level Philadelphia TRACON
11:00PM 39.8000 -74.8333 90° East 363 418 12,000  Level Philadelphia TRACON
11:01PM 39.7983 -74.7508 91° East 397 457 12,000 180 Level New York Center
11:02PM 39.8686 -74.6439 49° Northeast 375 432 12,400 1,200 Climbing New York Center
11:03PM 39.9525 -74.5619 37° Northeast 362 417 14,500 2,220 Climbing New York Center
11:04PM 40.0453 -74.4694 37° Northeast 362 417 16,900 1,560 Climbing New York Center
11:06PM 40.2303 -74.4161 12° North 346 398 19,200 1,260 Climbing Boston Center
11:07PM 40.3308 -74.3947 North 358 412 20,600 1,200 Climbing Boston Center
11:08PM 40.4333 -74.3703 10° North 364 419 21,600 900 Climbing Boston Center
11:09PM 40.5378 -74.3433 11° North 371 427 22,500 840 Climbing Boston Center
11:10PM 40.6425 -74.3164 11° North 371 427 23,400 1,200 Climbing Boston Center
11:11PM 40.7511 -74.3003 North 371 427 24,900 1,260 Climbing Boston Center
11:12PM 40.8536 -74.2758 10° North 371 427 25,900 540 Climbing Boston Center
11:13PM 40.9583 -74.2486 11° North 371 427 26,000  Climbing Boston Center
11:14PM 41.0669 -74.2242 10° North 382 440 26,000  Level Boston Center
11:15PM 41.1781 -74.1969 10° North 394 453 26,000  Level Boston Center
11:16PM 41.2783 -74.1664 13° North 399 459 26,000  Level Boston Center
11:17PM 41.3892 -74.1417 North 404 465 26,000  Level Boston Center
11:18PM 41.4864 -74.0639 31° Northeast 396 456 26,000 -480 Level Boston Center
11:19PM 41.5836 -73.9556 40° Northeast 401 461 25,100 -1,260 Descending Boston Center
11:20PM 41.6664 -73.8544 42° Northeast 401 461 23,500 -1,620 Descending Boston Center
11:21PM 41.7625 -73.8344 North 346 398 21,900 -1,500 Descending Boston Center
11:22PM 41.8625 -73.8339 360° North 346 398 20,500 -1,500 Descending Boston Center
11:22PM 41.9208 -73.8325 North 365 420 19,600 -1,560 Descending Boston Center
11:23PM 41.9750 -73.8308 North 368 423 18,800 -1,140 Descending Boston Center
11:24PM 42.0606 -73.8269 North 373 429 17,900 -1,500 Descending Boston Center
11:25PM 42.1753 -73.8211 North 373 429 16,100 -1,680 Descending Boston Center
11:26PM 42.2608 -73.8092 North 355 409 14,700 -1,740 Descending Boston Center
11:27PM 42.3569 -73.7942 North 328 377 12,600 -1,920 Descending Boston Center
11:28PM 42.4342 -73.7847 North 318 366 10,900 -1,800 Descending Boston Center
11:29PM 42.5239 -73.7642 10° North 283 326 9,000 -1,680 Descending Boston Center
11:30PM 42.5808 -73.7203 30° Northeast 267 307 7,500 -1,980 Descending Boston Center
11:31PM 42.6561 -73.6908 16° North 260 299 5,300 -2,220 Descending Boston Center
11:32PM 42.7269 -73.6950 358° North 247 284 3,200 -1,200 Descending Boston Center
11:33PM 42.7914 -73.6992 357° North 242 278 3,000 -480 Descending Boston Center
11:34PM 42.8414 -73.7172 345° North 219 252 2,300 -600 Descending Boston Center
11:35PM 42.8361 -73.8019 265° West 133 153 1,700 -540 Descending Boston Center
11:36PM 42.8006 -73.8097 189° South 113 130 1,200 -600 Descending Boston Center
11:37PM 42.7672 -73.8061 175° South 122 140 500 -720 Descending Boston Center